createdAt,value
2018-04-13T00:01:04.348Z,13.74
2018-04-13T00:04:06.845Z,13.63
2018-04-13T00:07:09.443Z,13.50
2018-04-13T00:10:11.951Z,13.36
2018-04-13T00:13:14.420Z,13.35
2018-04-13T00:16:16.948Z,13.10
2018-04-13T00:19:19.452Z,13.03
2018-04-13T00:22:21.937Z,12.97
2018-04-13T00:25:24.517Z,12.99
2018-04-13T00:28:27.178Z,12.90
2018-04-13T00:31:29.698Z,12.86
2018-04-13T00:34:32.176Z,12.81
2018-04-13T00:37:34.662Z,12.75
2018-04-13T00:40:37.226Z,12.76
2018-04-13T00:43:39.673Z,12.73
2018-04-13T00:46:42.175Z,12.72
2018-04-13T00:49:44.709Z,12.72
2018-04-13T00:52:59.060Z,12.71
2018-04-13T00:56:01.606Z,12.63
2018-04-13T00:59:04.139Z,12.60
2018-04-13T01:02:06.647Z,12.56
2018-04-13T01:05:09.085Z,12.46
2018-04-13T01:08:11.586Z,12.43
2018-04-13T01:11:14.118Z,12.41
2018-04-13T01:14:16.664Z,12.38
2018-04-13T01:17:19.294Z,12.41
2018-04-13T01:20:21.796Z,12.49
2018-04-13T01:23:24.290Z,12.56
2018-04-13T01:26:26.744Z,12.79
2018-04-13T01:29:29.254Z,12.87
2018-04-13T01:32:31.818Z,13.03
2018-04-13T01:35:34.333Z,13.04
2018-04-13T01:38:36.855Z,13.02
2018-04-13T01:41:39.438Z,13.11
2018-04-13T01:44:41.927Z,13.40
2018-04-13T01:47:44.436Z,13.45
2018-04-13T01:50:46.925Z,13.52
2018-04-13T01:53:49.393Z,13.50
2018-04-13T01:56:51.898Z,13.38
2018-04-13T01:59:54.357Z,13.35
2018-04-13T02:02:56.838Z,13.34
2018-04-13T02:05:59.333Z,13.40
2018-04-13T02:09:01.831Z,13.38
2018-04-13T02:12:04.285Z,13.38
2018-04-13T02:15:06.759Z,13.40
2018-04-13T02:18:09.243Z,13.60
2018-04-13T02:21:11.721Z,13.79
2018-04-13T02:24:14.262Z,13.96
2018-04-13T02:27:16.748Z,13.96
2018-04-13T02:30:19.311Z,14.03
2018-04-13T02:33:21.800Z,13.95
2018-04-13T02:36:24.774Z,13.90
2018-04-13T02:39:27.245Z,13.86
2018-04-13T02:42:29.745Z,14.01
2018-04-13T02:45:32.335Z,13.90
2018-04-13T02:48:34.860Z,13.80
2018-04-13T02:51:37.546Z,13.68
2018-04-13T02:54:39.999Z,13.44
2018-04-13T02:57:42.505Z,13.32
2018-04-13T03:00:45.048Z,13.24
2018-04-13T03:03:47.503Z,13.10
2018-04-13T03:06:50.013Z,12.90
2018-04-13T03:09:52.501Z,12.76
2018-04-13T03:12:55.048Z,12.70
2018-04-13T03:15:57.655Z,12.77
2018-04-13T03:19:00.148Z,12.89
2018-04-13T03:22:02.598Z,12.92
2018-04-13T03:25:05.148Z,13.12
2018-04-13T03:28:07.573Z,13.02
2018-04-13T03:31:10.053Z,12.95
2018-04-13T03:34:12.512Z,12.76
2018-04-13T03:37:14.958Z,12.66
2018-04-13T03:40:17.449Z,12.60
2018-04-13T03:43:19.964Z,12.57
2018-04-13T03:46:22.504Z,12.55
2018-04-13T03:49:25.017Z,12.50
2018-04-13T03:52:27.520Z,12.52
2018-04-13T03:55:29.995Z,12.50
2018-04-13T03:58:32.515Z,12.51
2018-04-13T04:01:34.989Z,12.53
2018-04-13T04:04:37.479Z,12.55
2018-04-13T04:07:39.988Z,12.52
2018-04-13T04:10:42.440Z,12.50
2018-04-13T04:13:45.014Z,12.56
2018-04-13T04:16:47.503Z,12.58
2018-04-13T04:20:01.803Z,12.53
2018-04-13T04:23:16.211Z,12.55
2018-04-13T04:26:30.585Z,12.57
2018-04-13T04:29:33.078Z,12.65
2018-04-13T04:32:35.566Z,12.62
2018-04-13T04:35:38.036Z,12.60
2018-04-13T04:38:40.506Z,12.58
2018-04-13T04:41:43.035Z,12.55
2018-04-13T04:44:45.537Z,12.59
2018-04-13T04:47:48.044Z,12.78
2018-04-13T04:50:50.528Z,12.72
2018-04-13T04:53:53.123Z,12.72
2018-04-13T04:56:55.585Z,12.71
2018-04-13T04:59:58.094Z,12.73
2018-04-13T05:03:00.556Z,12.77
2018-04-13T05:06:03.172Z,12.80
2018-04-13T05:09:05.610Z,12.80
2018-04-13T05:12:08.214Z,12.66
2018-04-13T05:15:10.728Z,12.73
2018-04-13T05:18:13.327Z,12.74
2018-04-13T05:21:15.782Z,12.72
2018-04-13T05:24:18.262Z,12.74
2018-04-13T05:27:20.737Z,12.73
2018-04-13T05:30:23.268Z,12.75
2018-04-13T05:33:25.717Z,12.84
2018-04-13T05:36:28.180Z,12.87
2018-04-13T05:39:30.638Z,12.87
2018-04-13T05:42:33.180Z,12.92
2018-04-13T05:45:35.682Z,12.92
2018-04-13T05:48:38.185Z,12.94
2018-04-13T05:51:40.966Z,12.94
2018-04-13T05:54:43.497Z,12.94
2018-04-13T05:57:45.983Z,12.95
2018-04-13T06:00:48.587Z,12.84
2018-04-13T06:03:51.100Z,12.86
2018-04-13T06:06:53.542Z,12.99
2018-04-13T06:09:56.122Z,13.15
2018-04-13T06:12:58.626Z,13.26
2018-04-13T06:16:01.197Z,13.46
2018-04-13T06:19:03.691Z,13.65
2018-04-13T06:22:06.287Z,13.80
2018-04-13T06:25:08.792Z,13.98
2018-04-13T06:28:11.307Z,14.20
2018-04-13T06:31:13.796Z,14.39
2018-04-13T06:34:16.310Z,14.49
2018-04-13T06:37:18.844Z,14.67
2018-04-13T06:40:21.296Z,14.34
2018-04-13T06:43:23.854Z,14.73
2018-04-13T06:46:26.331Z,14.64
2018-04-13T06:49:28.842Z,14.85
2018-04-13T06:52:31.292Z,14.62
2018-04-13T06:55:33.779Z,14.83
2018-04-13T06:58:36.246Z,15.11
2018-04-13T07:01:38.758Z,15.19
2018-04-13T07:04:41.216Z,15.47
2018-04-13T07:07:43.777Z,15.18
2018-04-13T07:10:46.411Z,14.96
2018-04-13T07:13:48.886Z,14.98
2018-04-13T07:16:51.428Z,14.96
2018-04-13T07:19:53.918Z,14.78
2018-04-13T07:22:56.412Z,14.80
2018-04-13T07:25:58.888Z,15.28
2018-04-13T07:29:01.455Z,15.59
2018-04-13T07:32:03.998Z,15.57
2018-04-13T07:35:06.508Z,15.70
2018-04-13T07:38:08.996Z,15.98
2018-04-13T07:41:11.494Z,15.65
2018-04-13T07:44:13.988Z,16.18
2018-04-13T07:47:16.471Z,16.29
2018-04-13T07:50:18.992Z,16.39
2018-04-13T07:53:21.493Z,16.07
2018-04-13T07:56:24.053Z,15.68
2018-04-13T07:59:26.520Z,15.65
2018-04-13T08:02:29.033Z,16.05
2018-04-13T08:05:31.517Z,15.92
2018-04-13T08:08:34.045Z,16.07
2018-04-13T08:11:36.538Z,16.21
2018-04-13T08:14:39.030Z,16.42
2018-04-13T08:17:41.512Z,16.79
2018-04-13T08:20:44.068Z,16.13
2018-04-13T08:23:46.578Z,16.03
2018-04-13T08:26:49.064Z,16.16
2018-04-13T08:29:51.554Z,15.90
2018-04-13T08:32:54.017Z,16.06
2018-04-13T08:35:56.543Z,16.30
2018-04-13T08:38:59.014Z,16.40
2018-04-13T08:42:01.539Z,16.10
2018-04-13T08:45:04.028Z,16.26
2018-04-13T08:48:06.493Z,16.07
2018-04-13T08:51:09.025Z,15.97
2018-04-13T08:54:11.532Z,15.87
2018-04-13T08:57:14.000Z,15.87
2018-04-13T09:00:16.526Z,15.74
2018-04-13T09:03:19.012Z,15.59
2018-04-13T09:06:21.536Z,15.49
2018-04-13T09:09:23.965Z,15.76
2018-04-13T09:12:26.568Z,15.74
2018-04-13T09:15:29.044Z,15.81
2018-04-13T09:18:31.595Z,15.91
2018-04-13T09:21:34.119Z,16.02
2018-04-13T09:24:36.570Z,15.68
2018-04-13T09:27:39.050Z,15.99
2018-04-13T09:30:41.560Z,15.76
2018-04-13T09:33:44.232Z,15.48
2018-04-13T09:36:46.724Z,15.75
2018-04-13T09:39:49.219Z,15.59
2018-04-13T09:42:51.692Z,15.59
2018-04-13T09:45:54.235Z,15.84
2018-04-13T09:48:56.715Z,15.65
2018-04-13T09:51:59.249Z,15.67
2018-04-13T09:55:01.784Z,15.81
2018-04-13T09:58:04.315Z,15.99
2018-04-13T10:01:06.797Z,16.34
2018-04-13T10:04:13.285Z,15.83
2018-04-13T10:07:15.781Z,15.54
2018-04-13T10:10:18.263Z,15.74
2018-04-13T10:13:20.799Z,15.57
2018-04-13T10:16:23.394Z,15.37
2018-04-13T10:19:25.847Z,15.43
2018-04-13T10:22:28.364Z,15.49
2018-04-13T10:25:31.029Z,15.39
2018-04-13T10:28:33.569Z,15.38
2018-04-13T10:31:36.080Z,15.63
2018-04-13T10:34:38.661Z,15.62
2018-04-13T10:37:41.158Z,15.90
2018-04-13T10:40:43.656Z,15.56
2018-04-13T10:43:46.169Z,15.62
2018-04-13T10:46:48.680Z,15.59
2018-04-13T10:49:51.264Z,15.63
2018-04-13T10:52:53.781Z,15.71
2018-04-13T10:55:56.264Z,15.70
2018-04-13T10:58:58.774Z,15.22
2018-04-13T11:02:01.248Z,14.93
2018-04-13T11:05:03.735Z,14.85
2018-04-13T11:08:06.216Z,14.67
2018-04-13T11:11:08.709Z,14.59
2018-04-13T11:14:11.233Z,14.59
2018-04-13T11:17:13.789Z,14.78
2018-04-13T11:20:16.280Z,14.69
2018-04-13T11:23:18.766Z,14.55
2018-04-13T11:26:21.282Z,14.57
2018-04-13T11:29:23.858Z,14.66
2018-04-13T11:32:26.347Z,14.59
2018-04-13T11:35:28.889Z,14.59
2018-04-13T11:38:31.409Z,14.67
2018-04-13T11:41:34.017Z,14.64
2018-04-13T11:44:36.504Z,14.40
2018-04-13T11:47:38.979Z,14.50
2018-04-13T11:50:41.499Z,14.32
2018-04-13T11:53:44.023Z,14.33
2018-04-13T11:56:46.532Z,14.33
2018-04-13T11:59:49.038Z,14.33
2018-04-13T12:02:51.639Z,14.35
2018-04-13T12:05:54.148Z,14.25
2018-04-13T12:08:56.641Z,14.24
2018-04-13T12:11:59.153Z,14.25
2018-04-13T12:15:01.769Z,14.33
2018-04-13T12:18:04.330Z,14.44
2018-04-13T12:21:06.838Z,14.63
2018-04-13T12:24:09.329Z,14.88
2018-04-13T12:27:11.830Z,14.78
2018-04-13T12:30:14.346Z,14.95
2018-04-13T12:33:16.857Z,14.92
2018-04-13T12:36:19.370Z,14.91
2018-04-13T12:39:21.907Z,14.91
2018-04-13T12:42:24.441Z,14.63
2018-04-13T12:45:26.945Z,14.63
2018-04-13T12:48:29.464Z,14.44
2018-04-13T12:51:31.973Z,14.18
2018-04-13T12:54:34.645Z,14.04
2018-04-13T12:57:36.978Z,14.04
2018-04-13T13:00:39.466Z,14.01
2018-04-13T13:03:41.987Z,14.01
2018-04-13T13:06:44.518Z,13.90
2018-04-13T13:09:47.027Z,13.94
2018-04-13T13:12:49.522Z,13.81
2018-04-13T13:15:52.040Z,13.74
2018-04-13T13:18:54.527Z,13.65
2018-04-13T13:21:57.035Z,13.58
2018-04-13T13:24:59.656Z,13.74
2018-04-13T13:28:02.143Z,13.69
2018-04-13T13:31:04.727Z,13.75
2018-04-13T13:34:07.247Z,13.88
2018-04-13T13:37:09.847Z,13.90
2018-04-13T13:40:12.370Z,13.85
2018-04-13T13:43:14.858Z,13.75
2018-04-13T13:46:17.438Z,13.67
2018-04-13T13:49:20.026Z,13.66
2018-04-13T13:52:22.542Z,13.79
2018-04-13T13:55:25.016Z,13.79
2018-04-13T13:58:27.576Z,13.75
2018-04-13T14:01:30.095Z,13.69
2018-04-13T14:04:32.602Z,13.64
2018-04-13T14:07:35.128Z,13.49
2018-04-13T14:10:37.611Z,13.49
2018-04-13T14:13:40.117Z,13.54
2018-04-13T14:16:42.615Z,13.51
2018-04-13T14:19:45.112Z,13.38
2018-04-13T14:22:47.627Z,13.33
2018-04-13T14:25:50.176Z,13.39
2018-04-13T14:28:52.704Z,13.41
2018-04-13T14:31:55.268Z,13.35
2018-04-13T14:34:57.830Z,13.38
2018-04-13T14:38:00.351Z,13.40
2018-04-13T14:41:02.878Z,13.50
2018-04-13T14:44:05.384Z,13.23
2018-04-13T14:47:07.917Z,13.31
2018-04-13T14:50:10.446Z,13.27
2018-04-13T14:53:12.999Z,13.10
2018-04-13T14:56:15.466Z,13.14
2018-04-13T14:59:17.969Z,13.15
2018-04-13T15:02:20.502Z,13.08
2018-04-13T15:05:23.116Z,13.08
2018-04-13T15:08:25.577Z,13.26
2018-04-13T15:11:28.099Z,13.11
2018-04-13T15:14:30.644Z,13.18
2018-04-13T15:17:33.211Z,13.18
2018-04-13T15:20:35.688Z,13.27
2018-04-13T15:23:38.223Z,13.14
2018-04-13T15:26:40.728Z,13.08
2018-04-13T15:29:43.249Z,13.08
2018-04-13T15:32:45.797Z,13.05
2018-04-13T15:35:48.362Z,13.08
2018-04-13T15:38:50.929Z,13.01
2018-04-13T15:41:53.412Z,13.07
2018-04-13T15:44:55.918Z,13.04
2018-04-13T15:47:58.440Z,13.06
2018-04-13T15:51:00.952Z,13.03
2018-04-13T15:54:03.505Z,12.93
2018-04-13T15:57:05.969Z,12.95
2018-04-13T16:00:08.513Z,12.88
2018-04-13T16:03:11.017Z,12.97
2018-04-13T16:06:13.643Z,12.94
2018-04-13T16:09:16.246Z,12.87
2018-04-13T16:12:18.754Z,12.81
2018-04-13T16:15:21.245Z,12.77
2018-04-13T16:18:23.756Z,12.69
2018-04-13T16:21:26.246Z,12.72
2018-04-13T16:24:28.725Z,12.70
2018-04-13T16:27:31.230Z,12.61
2018-04-13T16:30:33.778Z,12.61
2018-04-13T16:33:36.325Z,12.58
2018-04-13T16:36:38.816Z,12.57
2018-04-13T16:39:41.311Z,12.57
2018-04-13T16:42:44.759Z,12.59
2018-04-13T16:45:47.312Z,12.61
2018-04-13T16:48:49.800Z,12.69
2018-04-13T16:51:56.264Z,12.70
2018-04-13T16:54:58.786Z,12.71
2018-04-13T16:58:01.348Z,12.71
2018-04-13T17:01:03.863Z,12.74
2018-04-13T17:04:06.369Z,12.78
2018-04-13T17:07:08.882Z,12.95
2018-04-13T17:10:11.395Z,13.00
2018-04-13T17:13:13.964Z,13.07
2018-04-13T17:16:16.484Z,13.08
2018-04-13T17:19:18.997Z,13.10
2018-04-13T17:22:21.541Z,13.15
2018-04-13T17:25:24.145Z,13.17
2018-04-13T17:28:26.674Z,13.01
2018-04-13T17:31:29.142Z,13.01
2018-04-13T17:34:31.664Z,12.99
2018-04-13T17:37:35.183Z,12.94
2018-04-13T17:40:37.749Z,12.87
2018-04-13T17:43:40.249Z,12.92
2018-04-13T17:46:42.866Z,12.82
2018-04-13T17:49:45.413Z,12.70
2018-04-13T17:52:47.930Z,12.55
2018-04-13T17:55:50.526Z,12.50
2018-04-13T17:58:54.000Z,12.45
2018-04-13T18:01:56.493Z,12.55
2018-04-13T18:04:59.046Z,12.62
2018-04-13T18:08:01.581Z,12.56
2018-04-13T18:11:04.101Z,12.62
2018-04-13T18:14:06.741Z,12.65
2018-04-13T18:17:09.255Z,12.67
2018-04-13T18:20:11.808Z,12.65
2018-04-13T18:23:14.301Z,12.60
2018-04-13T18:26:16.790Z,12.63
2018-04-13T18:29:19.347Z,12.69
2018-04-13T18:32:21.918Z,12.52
2018-04-13T18:35:24.401Z,12.50
2018-04-13T18:38:26.957Z,12.50
2018-04-13T18:41:29.451Z,12.65
2018-04-13T18:44:32.118Z,12.76
2018-04-13T18:47:34.675Z,12.67
2018-04-13T18:50:37.195Z,12.63
2018-04-13T18:53:39.735Z,12.58
2018-04-13T18:56:42.262Z,12.60
2018-04-13T18:59:44.885Z,12.66
2018-04-13T19:02:47.510Z,12.67
2018-04-13T19:05:50.082Z,12.59
2018-04-13T19:08:52.586Z,12.48
2018-04-13T19:11:55.086Z,12.49
2018-04-13T19:14:57.649Z,12.43
2018-04-13T19:18:00.261Z,12.48
2018-04-13T19:21:02.933Z,12.52
2018-04-13T19:24:05.486Z,12.60
2018-04-13T19:27:08.048Z,12.56
2018-04-13T19:30:10.520Z,12.61
2018-04-13T19:33:13.050Z,12.57
2018-04-13T19:36:15.624Z,12.57
2018-04-13T19:39:18.125Z,12.56
2018-04-13T19:42:20.707Z,12.61
2018-04-13T19:45:23.325Z,12.64
2018-04-13T19:48:25.795Z,12.63
2018-04-13T19:51:28.275Z,12.61
2018-04-13T19:54:30.887Z,12.69
2018-04-13T19:57:34.194Z,12.71
2018-04-13T20:00:36.744Z,12.73
2018-04-13T20:03:39.258Z,12.69
2018-04-13T20:06:41.797Z,12.69
2018-04-13T20:09:44.319Z,12.69
2018-04-13T20:12:46.907Z,12.66
2018-04-13T20:15:49.409Z,12.64
2018-04-13T20:18:51.967Z,12.57
2018-04-13T20:21:54.491Z,12.48
2018-04-13T20:24:57.009Z,12.40
2018-04-13T20:31:10.225Z,12.18
2018-04-13T20:34:12.771Z,12.12
2018-04-13T20:37:15.253Z,12.10
2018-04-13T20:40:17.785Z,12.10
2018-04-13T20:43:20.284Z,12.07
2018-04-13T20:46:22.852Z,12.04
2018-04-13T20:49:25.372Z,12.06
2018-04-13T20:52:27.942Z,12.12
2018-04-13T20:55:30.474Z,12.04
2018-04-13T20:58:33.049Z,12.07
2018-04-13T21:01:35.573Z,12.11
2018-04-13T21:04:38.107Z,12.07
2018-04-13T21:07:40.636Z,12.06
2018-04-13T21:10:43.154Z,12.02
2018-04-13T21:13:45.742Z,12.00
2018-04-13T21:16:48.225Z,12.03
2018-04-13T21:19:50.753Z,12.04
2018-04-13T21:22:53.256Z,11.98
2018-04-13T21:25:55.732Z,11.89
2018-04-13T21:28:58.238Z,11.85
2018-04-13T21:32:00.749Z,11.83
2018-04-13T21:35:03.435Z,11.82
2018-04-13T21:38:05.946Z,11.84
2018-04-13T21:41:08.598Z,11.83
2018-04-13T21:44:11.128Z,11.79
2018-04-13T21:47:13.651Z,11.77
2018-04-13T21:50:16.156Z,11.72
2018-04-13T21:53:18.737Z,11.72
2018-04-13T21:56:21.213Z,11.63
2018-04-13T21:59:23.749Z,11.62
2018-04-13T22:02:26.269Z,11.62
2018-04-13T22:05:28.780Z,11.55
2018-04-13T22:08:31.311Z,11.46
2018-04-13T22:11:33.816Z,11.48
2018-04-13T22:14:48.172Z,11.46
2018-04-13T22:17:50.818Z,11.39
2018-04-13T22:20:53.347Z,11.29
2018-04-13T22:23:55.818Z,11.31
2018-04-13T22:26:58.302Z,11.27
2018-04-13T22:30:00.957Z,11.18
2018-04-13T22:33:03.517Z,11.17
2018-04-13T22:36:06.032Z,11.12
2018-04-13T22:39:08.642Z,11.16
2018-04-13T22:42:11.186Z,11.20
2018-04-13T22:45:13.667Z,11.16
2018-04-13T22:48:16.194Z,11.15
2018-04-13T22:51:18.671Z,11.14
2018-04-13T22:54:21.204Z,11.16
2018-04-13T22:57:23.727Z,11.17
2018-04-13T23:00:26.241Z,11.17
2018-04-13T23:03:28.851Z,11.12
2018-04-13T23:06:31.403Z,11.08
2018-04-13T23:09:33.907Z,11.02
2018-04-13T23:12:36.437Z,11.00
2018-04-13T23:18:47.755Z,10.90
2018-04-13T23:21:50.241Z,10.88
2018-04-13T23:24:52.736Z,10.85
2018-04-13T23:27:55.234Z,10.77
2018-04-13T23:30:57.717Z,10.74
2018-04-13T23:34:00.241Z,10.70
2018-04-13T23:37:02.717Z,10.68
2018-04-13T23:40:05.249Z,10.67
2018-04-13T23:43:07.758Z,10.58
2018-04-13T23:46:10.227Z,10.59
2018-04-13T23:49:12.757Z,10.51
2018-04-13T23:52:15.242Z,10.50
2018-04-13T23:55:17.759Z,10.50
2018-04-13T23:58:20.290Z,10.45
